createdAt,value
2022-08-27T00:02:06.547Z,26.96
2022-08-27T00:04:34.797Z,27.01
2022-08-27T00:07:03.340Z,26.95
2022-08-27T00:09:31.952Z,26.97
2022-08-27T00:11:59.391Z,26.89
2022-08-27T00:14:28.626Z,26.83
2022-08-27T00:16:56.995Z,26.53
2022-08-27T00:19:24.588Z,26.74
2022-08-27T00:21:52.128Z,26.81
2022-08-27T00:24:19.410Z,26.74
2022-08-27T00:26:46.563Z,26.72
2022-08-27T00:29:13.827Z,26.58
2022-08-27T00:31:41.104Z,26.43
2022-08-27T00:34:08.563Z,26.72
2022-08-27T00:36:41.195Z,26.76
2022-08-27T00:39:08.589Z,26.84
2022-08-27T00:41:36.160Z,26.51
2022-08-27T00:44:03.625Z,26.65
2022-08-27T00:46:52.803Z,26.99
2022-08-27T00:49:28.630Z,26.84
2022-08-27T00:52:29.069Z,26.62
2022-08-27T00:55:20.580Z,26.89
2022-08-27T00:58:09.345Z,26.48
2022-08-27T01:00:37.565Z,26.39
2022-08-27T01:03:06.349Z,26.58
2022-08-27T01:05:35.421Z,26.32
2022-08-27T01:08:17.589Z,25.98
2022-08-27T01:10:45.549Z,26.47
2022-08-27T01:13:17.429Z,26.72
2022-08-27T01:15:45.239Z,26.81
2022-08-27T01:18:14.471Z,27.17
2022-08-27T01:21:08.008Z,26.92
2022-08-27T01:24:07.001Z,26.84
2022-08-27T01:26:34.537Z,26.88
2022-08-27T01:29:01.782Z,27.15
2022-08-27T01:31:29.512Z,27.10
2022-08-27T01:34:06.326Z,27.15
2022-08-27T01:36:34.019Z,26.78
2022-08-27T01:39:01.405Z,26.92
2022-08-27T01:41:28.628Z,27.01
2022-08-27T01:43:56.160Z,26.68
2022-08-27T01:46:27.001Z,26.96
2022-08-27T01:48:55.481Z,27.20
2022-08-27T01:51:22.759Z,27.38
2022-08-27T01:53:50.101Z,27.56
2022-08-27T01:56:17.385Z,27.18
2022-08-27T01:58:45.012Z,27.20
2022-08-27T02:01:16.918Z,27.28
2022-08-27T02:03:47.355Z,27.14
2022-08-27T02:06:15.487Z,26.89
2022-08-27T02:08:42.842Z,27.46
2022-08-27T02:11:10.140Z,27.22
2022-08-27T02:13:37.682Z,27.12
2022-08-27T02:16:05.630Z,27.31
2022-08-27T02:18:35.243Z,27.23
2022-08-27T02:21:02.717Z,27.25
2022-08-27T02:23:29.887Z,27.13
2022-08-27T02:25:57.185Z,27.01
2022-08-27T02:28:24.440Z,27.00
2022-08-27T02:30:51.739Z,26.76
2022-08-27T02:33:19.004Z,26.82
2022-08-27T02:35:46.317Z,26.84
2022-08-27T02:38:14.295Z,26.64
2022-08-27T02:40:41.577Z,26.35
2022-08-27T02:43:09.654Z,26.38
2022-08-27T02:45:43.583Z,26.72
2022-08-27T02:48:11.320Z,26.49
2022-08-27T02:50:39.143Z,26.75
2022-08-27T02:53:07.434Z,26.39
2022-08-27T02:55:35.593Z,26.54
2022-08-27T02:58:04.859Z,25.74
2022-08-27T03:00:32.172Z,25.89
2022-08-27T03:02:59.872Z,25.54
2022-08-27T03:05:27.211Z,25.58
2022-08-27T03:07:54.905Z,25.64
2022-08-27T03:10:22.573Z,25.31
2022-08-27T03:12:50.501Z,25.19
2022-08-27T03:15:20.085Z,25.27
2022-08-27T03:18:06.241Z,25.42
2022-08-27T03:20:37.305Z,25.79
2022-08-27T03:23:04.435Z,25.57
2022-08-27T03:25:33.038Z,25.87
2022-08-27T03:28:01.455Z,25.47
2022-08-27T03:30:29.977Z,25.63
2022-08-27T03:32:57.120Z,25.67
2022-08-27T03:35:24.498Z,25.45
2022-08-27T03:37:51.822Z,25.33
2022-08-27T03:40:19.954Z,25.54
2022-08-27T03:42:47.104Z,25.81
2022-08-27T03:45:14.355Z,25.74
2022-08-27T03:47:41.819Z,25.68
2022-08-27T03:50:11.325Z,25.95
2022-08-27T03:52:38.623Z,26.02
2022-08-27T03:55:08.825Z,25.60
2022-08-27T03:57:36.549Z,25.38
2022-08-27T04:00:09.064Z,25.31
2022-08-27T04:02:36.359Z,25.00
2022-08-27T04:05:04.680Z,24.85
2022-08-27T04:07:33.130Z,24.78
2022-08-27T04:10:00.362Z,25.21
2022-08-27T04:12:28.667Z,24.82
2022-08-27T04:14:55.946Z,24.64
2022-08-27T04:17:23.176Z,25.17
2022-08-27T04:19:53.067Z,25.08
2022-08-27T04:22:21.091Z,25.25
2022-08-27T04:24:48.298Z,25.18
2022-08-27T04:27:16.538Z,25.00
2022-08-27T04:29:44.511Z,25.74
2022-08-27T04:32:15.234Z,25.79
2022-08-27T04:34:42.373Z,25.63
2022-08-27T04:37:09.535Z,25.15
2022-08-27T04:39:37.284Z,25.35
2022-08-27T04:42:04.660Z,25.56
2022-08-27T04:44:42.182Z,25.44
2022-08-27T04:47:09.418Z,25.81
2022-08-27T04:49:37.153Z,25.58
2022-08-27T04:52:05.143Z,25.43
2022-08-27T04:54:33.603Z,25.79
2022-08-27T04:57:02.934Z,25.63
2022-08-27T04:59:31.430Z,25.42
2022-08-27T05:01:59.661Z,25.76
2022-08-27T05:04:27.253Z,25.86
2022-08-27T05:06:56.221Z,26.47
2022-08-27T05:09:24.594Z,26.46
2022-08-27T05:11:55.545Z,26.94
2022-08-27T05:14:24.437Z,26.79
2022-08-27T05:16:51.735Z,26.78
2022-08-27T05:19:18.829Z,27.21
2022-08-27T05:21:51.775Z,27.15
2022-08-27T05:24:19.612Z,27.39
2022-08-27T05:26:48.627Z,26.12
2022-08-27T05:29:16.782Z,26.22
2022-08-27T05:31:44.338Z,26.53
2022-08-27T05:34:14.234Z,27.40
2022-08-27T05:36:49.366Z,27.54
2022-08-27T05:39:17.789Z,27.32
2022-08-27T05:41:45.300Z,27.61
2022-08-27T05:44:40.113Z,27.95
2022-08-27T05:46:59.528Z,27.74
2022-08-27T05:49:26.649Z,27.40
2022-08-27T05:51:53.723Z,27.71
2022-08-27T05:54:21.094Z,27.76
2022-08-27T05:56:50.033Z,28.31
2022-08-27T05:59:37.060Z,27.64
2022-08-27T06:02:06.240Z,28.36
2022-08-27T06:04:36.423Z,27.61
2022-08-27T06:07:04.525Z,28.14
2022-08-27T06:09:31.709Z,28.50
2022-08-27T06:12:01.641Z,29.00
2022-08-27T06:14:29.172Z,29.77
2022-08-27T06:16:57.048Z,29.87
2022-08-27T06:19:24.281Z,31.20
2022-08-27T06:22:00.807Z,31.75
2022-08-27T06:24:39.841Z,32.71
2022-08-27T06:27:08.692Z,32.98
2022-08-27T06:29:35.846Z,32.90
2022-08-27T06:32:03.697Z,32.40
2022-08-27T06:34:30.769Z,32.68
2022-08-27T06:36:58.055Z,32.14
2022-08-27T06:39:25.999Z,32.31
2022-08-27T06:41:53.439Z,32.35
2022-08-27T06:44:21.205Z,31.65
2022-08-27T06:46:48.524Z,32.02
2022-08-27T06:49:15.778Z,32.52
2022-08-27T06:51:47.064Z,32.50
2022-08-27T06:54:16.073Z,30.76
2022-08-27T06:56:44.737Z,31.17
2022-08-27T06:59:15.642Z,31.78
2022-08-27T07:01:49.414Z,32.52
2022-08-27T07:04:31.905Z,32.31
2022-08-27T07:07:04.476Z,33.68
2022-08-27T07:09:34.717Z,34.81
2022-08-27T07:12:02.192Z,35.74
2022-08-27T07:14:34.189Z,37.21
2022-08-27T07:17:05.005Z,37.90
2022-08-27T07:19:33.666Z,37.23
2022-08-27T07:22:00.863Z,38.19
2022-08-27T07:24:28.333Z,38.44
2022-08-27T07:26:55.513Z,37.70
2022-08-27T07:29:22.801Z,40.07
2022-08-27T07:31:50.067Z,40.08
2022-08-27T07:34:17.585Z,39.61
2022-08-27T07:36:44.697Z,39.90
2022-08-27T07:39:14.029Z,39.25
2022-08-27T07:42:00.205Z,39.65
2022-08-27T07:44:34.206Z,39.37
2022-08-27T07:47:02.529Z,39.35
2022-08-27T07:49:30.554Z,41.46
2022-08-27T07:51:58.182Z,40.06
2022-08-27T07:54:25.383Z,40.37
2022-08-27T07:56:55.024Z,40.57
2022-08-27T07:59:26.187Z,40.66
2022-08-27T08:01:56.033Z,42.37
2022-08-27T08:04:24.004Z,40.81
2022-08-27T08:06:51.865Z,42.21
2022-08-27T08:09:20.332Z,41.60
2022-08-27T08:11:47.632Z,41.94
2022-08-27T08:14:14.741Z,41.38
2022-08-27T08:16:41.850Z,40.05
2022-08-27T08:19:09.557Z,41.37
2022-08-27T08:21:38.698Z,40.28
2022-08-27T08:24:06.523Z,40.41
2022-08-27T08:26:34.128Z,41.48
2022-08-27T08:29:04.737Z,40.77
2022-08-27T08:31:32.173Z,40.32
2022-08-27T08:33:59.273Z,40.61
2022-08-27T08:36:26.390Z,41.75
2022-08-27T08:38:54.954Z,40.23
2022-08-27T08:41:24.520Z,38.68
2022-08-27T08:43:51.808Z,41.54
2022-08-27T08:46:53.334Z,42.64
2022-08-27T08:49:38.916Z,40.74
2022-08-27T08:52:30.896Z,40.47
2022-08-27T08:55:41.504Z,41.68
2022-08-27T08:58:39.102Z,42.20
2022-08-27T09:01:09.908Z,42.36
2022-08-27T09:03:42.266Z,40.53
2022-08-27T09:06:21.620Z,39.39
2022-08-27T09:08:49.452Z,40.27
2022-08-27T09:11:43.354Z,38.47
2022-08-27T09:14:38.790Z,38.49
2022-08-27T09:17:11.312Z,38.67
2022-08-27T09:19:39.247Z,39.68
2022-08-27T09:22:20.707Z,40.08
2022-08-27T09:25:11.754Z,40.75
2022-08-27T09:27:42.979Z,41.18
2022-08-27T09:30:24.742Z,40.66
2022-08-27T09:33:01.906Z,41.33
2022-08-27T09:35:42.350Z,40.82
2022-08-27T09:38:14.105Z,39.62
2022-08-27T09:40:52.509Z,41.57
2022-08-27T09:43:27.094Z,42.33
2022-08-27T09:46:07.490Z,41.75
2022-08-27T09:48:37.717Z,40.96
2022-08-27T09:51:20.025Z,41.49
2022-08-27T09:54:04.406Z,40.08
2022-08-27T09:56:47.268Z,40.22
2022-08-27T09:59:29.016Z,41.04
2022-08-27T10:02:04.626Z,41.52
2022-08-27T10:04:50.739Z,39.49
2022-08-27T10:07:58.378Z,40.50
2022-08-27T10:10:46.900Z,40.24
2022-08-27T10:13:50.993Z,40.26
2022-08-27T10:17:03.131Z,40.41
2022-08-27T10:20:01.041Z,40.46
2022-08-27T10:23:19.733Z,38.40
2022-08-27T10:26:33.707Z,38.44
2022-08-27T10:29:36.052Z,39.23
2022-08-27T10:32:39.495Z,39.80
2022-08-27T10:36:02.093Z,38.11
2022-08-27T10:38:44.986Z,38.35
2022-08-27T10:41:31.137Z,38.84
2022-08-27T10:44:27.705Z,38.84
2022-08-27T10:47:43.729Z,38.51
2022-08-27T10:50:19.750Z,38.72
2022-08-27T10:52:55.028Z,39.16
2022-08-27T10:55:31.107Z,39.76
2022-08-27T10:58:52.613Z,38.13
2022-08-27T11:01:26.630Z,38.71
2022-08-27T11:04:15.091Z,39.61
2022-08-27T11:07:19.587Z,39.68
2022-08-27T11:10:04.732Z,37.74
2022-08-27T11:12:37.434Z,37.99
2022-08-27T11:15:13.570Z,39.38
2022-08-27T11:18:16.275Z,39.14
2022-08-27T11:21:30.250Z,38.79
2022-08-27T11:24:19.674Z,39.51
2022-08-27T11:26:49.592Z,38.52
2022-08-27T11:29:25.698Z,40.23
2022-08-27T11:32:30.433Z,38.35
2022-08-27T11:35:09.963Z,41.02
2022-08-27T11:38:13.170Z,40.08
2022-08-27T11:40:56.045Z,40.17
2022-08-27T11:43:28.802Z,38.31
2022-08-27T11:46:06.214Z,39.48
2022-08-27T11:48:42.220Z,39.40
2022-08-27T11:51:27.064Z,37.48
2022-08-27T11:54:10.929Z,37.71
2022-08-27T11:56:43.454Z,36.63
2022-08-27T11:59:23.627Z,36.92
2022-08-27T12:01:54.526Z,37.46
2022-08-27T12:04:30.778Z,38.71
2022-08-27T12:07:17.459Z,39.21
2022-08-27T12:09:56.898Z,39.79
2022-08-27T12:13:10.620Z,39.13
2022-08-27T12:16:20.488Z,37.34
2022-08-27T12:19:18.890Z,36.84
2022-08-27T12:22:03.923Z,36.86
2022-08-27T12:24:57.379Z,37.15
2022-08-27T12:27:34.588Z,38.25
2022-08-27T12:30:21.584Z,37.93
2022-08-27T12:32:54.526Z,36.63
2022-08-27T12:35:48.359Z,38.02
2022-08-27T12:38:53.706Z,37.28
2022-08-27T12:41:44.239Z,39.06
2022-08-27T12:44:14.639Z,38.86
2022-08-27T12:46:59.458Z,39.76
2022-08-27T12:49:39.693Z,39.64
2022-08-27T12:53:05.559Z,38.99
2022-08-27T12:55:46.146Z,37.97
2022-08-27T12:58:31.937Z,37.12
2022-08-27T13:01:28.589Z,36.64
2022-08-27T13:03:57.218Z,36.99
2022-08-27T13:06:36.266Z,37.44
2022-08-27T13:09:08.739Z,38.74
2022-08-27T13:11:49.748Z,39.41
2022-08-27T13:14:20.864Z,37.53
2022-08-27T13:17:05.818Z,39.04
2022-08-27T13:19:51.469Z,38.86
2022-08-27T13:22:40.523Z,38.95
2022-08-27T13:25:21.166Z,38.92
2022-08-27T13:28:08.804Z,37.21
2022-08-27T13:30:46.819Z,38.40
2022-08-27T13:33:25.451Z,37.86
2022-08-27T13:35:52.655Z,36.62
2022-08-27T13:38:22.468Z,37.89
2022-08-27T13:40:59.758Z,37.90
2022-08-27T13:43:44.897Z,38.11
2022-08-27T13:46:24.380Z,36.92
2022-08-27T13:48:56.189Z,36.71
2022-08-27T13:51:34.602Z,35.89
2022-08-27T13:54:16.140Z,36.08
2022-08-27T13:57:08.262Z,36.35
2022-08-27T13:59:42.874Z,36.12
2022-08-27T14:02:10.254Z,36.71
2022-08-27T14:04:48.601Z,36.68
2022-08-27T14:07:25.617Z,37.42
2022-08-27T14:10:18.757Z,37.36
2022-08-27T14:13:06.136Z,36.20
2022-08-27T14:15:38.648Z,35.07
2022-08-27T14:18:58.022Z,34.99
2022-08-27T14:21:23.971Z,35.49
2022-08-27T14:23:53.194Z,36.21
2022-08-27T14:26:20.641Z,36.27
2022-08-27T14:28:48.542Z,36.41
2022-08-27T14:31:16.175Z,36.31
2022-08-27T14:33:43.505Z,35.29
2022-08-27T14:36:11.290Z,35.14
2022-08-27T14:38:42.784Z,35.49
2022-08-27T14:41:11.101Z,36.24
2022-08-27T14:43:38.431Z,36.33
2022-08-27T14:46:12.056Z,36.17
2022-08-27T14:48:43.438Z,36.53
2022-08-27T14:51:28.862Z,36.96
2022-08-27T14:53:57.672Z,37.53
2022-08-27T14:56:26.169Z,37.45
2022-08-27T14:58:53.839Z,36.04
2022-08-27T15:01:25.439Z,36.58
2022-08-27T15:03:53.501Z,35.98
2022-08-27T15:06:23.579Z,35.78
2022-08-27T15:08:52.188Z,35.91
2022-08-27T15:11:26.664Z,36.02
2022-08-27T15:13:56.188Z,36.63
2022-08-27T15:16:35.199Z,35.77
2022-08-27T15:19:02.825Z,36.76
2022-08-27T15:21:31.191Z,36.28
2022-08-27T15:24:06.071Z,36.20
2022-08-27T15:26:34.827Z,35.96
2022-08-27T15:29:06.396Z,36.15
2022-08-27T15:31:35.098Z,36.33
2022-08-27T15:34:02.299Z,35.57
2022-08-27T15:36:29.393Z,36.14
2022-08-27T15:38:56.728Z,35.62
2022-08-27T15:41:27.279Z,36.14
2022-08-27T15:43:56.943Z,36.09
2022-08-27T15:46:25.762Z,35.95
2022-08-27T15:48:54.044Z,36.07
2022-08-27T15:51:31.534Z,36.41
2022-08-27T15:54:00.712Z,36.28
2022-08-27T15:56:32.540Z,36.63
2022-08-27T15:59:01.563Z,36.96
2022-08-27T16:01:37.816Z,37.35
2022-08-27T16:04:06.259Z,36.18
2022-08-27T16:06:34.998Z,35.48
2022-08-27T16:09:04.322Z,35.76
2022-08-27T16:11:32.500Z,34.82
2022-08-27T16:14:00.032Z,35.23
2022-08-27T16:16:32.085Z,35.42
2022-08-27T16:19:05.236Z,34.65
2022-08-27T16:21:34.899Z,34.72
2022-08-27T16:24:03.104Z,35.06
2022-08-27T16:26:30.227Z,34.72
2022-08-27T16:28:57.419Z,34.55
2022-08-27T16:31:24.905Z,34.83
2022-08-27T16:33:52.212Z,34.52
2022-08-27T16:36:20.154Z,35.41
2022-08-27T16:38:47.172Z,34.89
2022-08-27T16:41:14.343Z,34.64
2022-08-27T16:43:41.681Z,35.40
2022-08-27T16:46:08.817Z,35.10
2022-08-27T16:49:01.041Z,34.55
2022-08-27T16:51:45.105Z,34.67
2022-08-27T16:54:15.575Z,34.79
2022-08-27T16:56:46.196Z,34.02
2022-08-27T16:59:13.496Z,34.04
2022-08-27T17:01:41.953Z,34.52
2022-08-27T17:04:18.194Z,34.31
2022-08-27T17:06:54.888Z,33.78
2022-08-27T17:09:23.416Z,33.58
2022-08-27T17:11:57.579Z,33.99
2022-08-27T17:14:26.629Z,34.48
2022-08-27T17:16:54.161Z,34.65
2022-08-27T17:19:24.369Z,34.17
2022-08-27T17:21:52.493Z,34.05
2022-08-27T17:24:19.474Z,33.84
2022-08-27T17:26:46.610Z,33.61
2022-08-27T17:29:13.577Z,33.56
2022-08-27T17:31:42.700Z,33.97
2022-08-27T17:34:17.891Z,33.83
2022-08-27T17:36:46.316Z,34.24
2022-08-27T17:39:14.649Z,34.26
2022-08-27T17:41:45.635Z,34.03
2022-08-27T17:44:31.988Z,33.92
2022-08-27T17:47:02.918Z,34.07
2022-08-27T17:49:31.197Z,33.95
2022-08-27T17:52:02.491Z,33.63
2022-08-27T17:54:44.674Z,34.63
2022-08-27T17:57:25.084Z,34.84
2022-08-27T17:59:53.676Z,35.13
2022-08-27T18:02:38.837Z,35.09
2022-08-27T18:05:08.844Z,35.05
2022-08-27T18:07:39.858Z,35.03
2022-08-27T18:10:09.565Z,34.79
2022-08-27T18:12:36.919Z,34.31
2022-08-27T18:15:32.614Z,34.21
2022-08-27T18:18:00.329Z,34.12
2022-08-27T18:20:30.191Z,33.83
2022-08-27T18:22:58.093Z,33.84
2022-08-27T18:25:33.852Z,33.74
2022-08-27T18:28:09.941Z,33.49
2022-08-27T18:30:39.708Z,33.51
2022-08-27T18:33:07.199Z,33.32
2022-08-27T18:35:35.724Z,33.35
2022-08-27T18:38:03.909Z,33.02
2022-08-27T18:40:45.587Z,32.91
2022-08-27T18:43:14.798Z,33.02
2022-08-27T18:45:42.440Z,32.86
2022-08-27T18:48:22.471Z,32.56
2022-08-27T18:50:58.552Z,32.67
2022-08-27T18:53:31.053Z,32.46
2022-08-27T18:55:58.618Z,32.39
2022-08-27T18:58:26.668Z,32.30
2022-08-27T19:01:00.716Z,32.29
2022-08-27T19:03:51.872Z,32.06
2022-08-27T19:06:20.713Z,32.09
2022-08-27T19:08:49.675Z,32.11
2022-08-27T19:11:17.459Z,31.86
2022-08-27T19:13:44.552Z,31.34
2022-08-27T19:16:22.038Z,31.40
2022-08-27T19:18:49.156Z,31.45
2022-08-27T19:21:16.164Z,31.36
2022-08-27T19:23:43.553Z,31.30
2022-08-27T19:26:18.313Z,31.30
2022-08-27T19:28:45.969Z,31.07
2022-08-27T19:31:15.179Z,31.00
2022-08-27T19:33:44.036Z,30.88
2022-08-27T19:36:16.045Z,31.01
2022-08-27T19:38:45.113Z,31.10
2022-08-27T19:41:13.136Z,31.01
2022-08-27T19:43:44.651Z,31.09
2022-08-27T19:46:16.877Z,31.02
2022-08-27T19:48:44.065Z,30.83
2022-08-27T19:51:11.508Z,31.04
2022-08-27T19:53:39.157Z,30.93
2022-08-27T19:56:09.041Z,30.59
2022-08-27T19:58:36.543Z,30.43
2022-08-27T20:01:03.603Z,30.53
2022-08-27T20:03:30.729Z,30.35
2022-08-27T20:05:57.850Z,30.31
2022-08-27T20:08:25.010Z,30.31
2022-08-27T20:10:53.635Z,30.26
2022-08-27T20:13:20.709Z,30.18
2022-08-27T20:15:50.045Z,30.05
2022-08-27T20:18:18.671Z,29.90
2022-08-27T20:20:46.205Z,29.82
2022-08-27T20:23:15.756Z,29.52
2022-08-27T20:25:45.713Z,28.74
2022-08-27T20:28:37.660Z,29.24
2022-08-27T20:31:01.276Z,29.22
2022-08-27T20:33:28.561Z,29.21
2022-08-27T20:35:58.268Z,29.35
2022-08-27T20:38:25.748Z,29.29
2022-08-27T20:40:52.789Z,29.31
2022-08-27T20:43:19.974Z,29.20
2022-08-27T20:45:47.149Z,29.19
2022-08-27T20:48:14.860Z,28.80
2022-08-27T20:50:42.148Z,28.77
2022-08-27T20:53:09.242Z,28.96
2022-08-27T20:55:36.345Z,29.02
2022-08-27T20:58:22.217Z,29.20
2022-08-27T21:00:53.601Z,29.17
2022-08-27T21:03:21.233Z,28.99
2022-08-27T21:05:48.854Z,28.65
2022-08-27T21:08:18.495Z,29.03
2022-08-27T21:10:49.430Z,29.12
2022-08-27T21:13:17.543Z,29.17
2022-08-27T21:15:44.930Z,29.10
2022-08-27T21:18:13.020Z,28.99
2022-08-27T21:20:40.739Z,28.61
2022-08-27T21:23:08.497Z,28.82
2022-08-27T21:25:36.190Z,28.64
2022-08-27T21:28:09.718Z,28.50
2022-08-27T21:30:37.900Z,28.55
2022-08-27T21:33:05.336Z,28.22
2022-08-27T21:35:32.887Z,28.19
2022-08-27T21:38:01.446Z,28.07
2022-08-27T21:40:30.009Z,28.03
2022-08-27T21:42:58.337Z,27.91
2022-08-27T21:45:26.053Z,28.11
2022-08-27T21:47:54.148Z,28.03
2022-08-27T21:50:22.761Z,28.05
2022-08-27T21:52:50.958Z,27.77
2022-08-27T21:55:18.653Z,27.58
2022-08-27T21:57:46.386Z,27.87
2022-08-27T22:00:38.895Z,27.78
2022-08-27T22:03:10.479Z,27.92
2022-08-27T22:05:40.370Z,27.82
2022-08-27T22:08:09.379Z,27.72
2022-08-27T22:10:36.974Z,27.69
2022-08-27T22:13:04.490Z,27.61
2022-08-27T22:15:31.724Z,27.40
2022-08-27T22:17:59.238Z,27.43
2022-08-27T22:20:27.605Z,27.10
2022-08-27T22:22:55.045Z,27.11
2022-08-27T22:25:22.153Z,26.89
2022-08-27T22:27:49.279Z,26.70
2022-08-27T22:30:16.838Z,26.58
2022-08-27T22:32:44.073Z,26.65
2022-08-27T22:35:14.121Z,26.67
2022-08-27T22:37:41.676Z,26.61
2022-08-27T22:40:19.351Z,26.83
2022-08-27T22:42:48.342Z,27.10
2022-08-27T22:45:16.284Z,26.94
2022-08-27T22:47:43.744Z,27.05
2022-08-27T22:50:12.871Z,27.03
2022-08-27T22:52:44.062Z,27.17
2022-08-27T22:55:15.577Z,27.20
2022-08-27T22:57:42.830Z,27.12
2022-08-27T23:00:45.270Z,27.16
2022-08-27T23:03:20.311Z,26.75
2022-08-27T23:05:47.702Z,26.81
2022-08-27T23:08:15.424Z,26.64
2022-08-27T23:10:44.119Z,26.23
2022-08-27T23:13:13.384Z,26.55
2022-08-27T23:16:05.620Z,26.78
2022-08-27T23:18:33.376Z,26.60
2022-08-27T23:21:00.494Z,26.49
2022-08-27T23:23:30.757Z,26.53
2022-08-27T23:26:17.598Z,26.59
2022-08-27T23:28:45.391Z,26.29
2022-08-27T23:31:14.132Z,26.25
2022-08-27T23:33:41.611Z,25.87
2022-08-27T23:36:09.762Z,25.66
2022-08-27T23:38:37.507Z,25.78
2022-08-27T23:41:05.755Z,25.82
2022-08-27T23:43:32.955Z,25.92
2022-08-27T23:46:00.128Z,25.65
2022-08-27T23:48:27.427Z,25.83
2022-08-27T23:50:54.705Z,25.57
2022-08-27T23:53:22.102Z,25.68
2022-08-27T23:55:49.212Z,25.22
2022-08-27T23:58:16.409Z,25.66
